Time;durP1;ratioP1;P1;durP2;ratioP2;P2;SDS_P1;SDS_P2;PMS_P1;PMS_P2;Temp;Humidity;BMP_temperature;BMP_pressure;BME280_temperature;BME280_humidity;BME280_pressure;Samples;Min_cycle;Max_cycle;Signal;HPM_P1;HPM_P2
2023/04/09 00:00:03;;;;;;;;;69.00;54.00;;;;;7.38;50.24;99754.06;5080668;28;8855;-75
2023/04/09 00:03:01;;;;;;;;;87.25;68.50;;;;;7.42;51.10;99747.03;5084306;28;9014;-76
2023/04/09 00:05:31;;;;;;;;;83.75;65.25;;;;;7.39;50.67;99754.94;5068901;28;9619;-78
2023/04/09 00:07:59;;;;;;;;;85.67;68.00;;;;;7.40;51.16;99748.81;5068748;28;8855;-75
2023/04/09 00:10:28;;;;;;;;;74.33;59.00;;;;;7.35;51.28;99756.69;5069392;28;9074;-75
2023/04/09 00:12:57;;;;;;;;;87.33;69.67;;;;;7.32;51.76;99750.59;5087393;28;9274;-77
2023/04/09 00:15:26;;;;;;;;;88.00;70.33;;;;;7.30;51.75;99750.59;5086668;28;8938;-76
2023/04/09 00:17:59;;;;;;;;;94.67;72.67;;;;;7.34;51.28;99754.94;5073208;28;10067;-77
2023/04/09 00:20:30;;;;;;;;;88.67;70.33;;;;;7.37;51.67;99761.91;5082929;28;9243;-78
2023/04/09 00:22:58;;;;;;;;;87.00;69.33;;;;;7.35;50.79;99759.28;5086854;28;9416;-76
2023/04/09 00:25:28;;;;;;;;;84.33;67.33;;;;;7.33;51.03;99761.06;5086847;28;9172;-77
2023/04/09 00:27:56;;;;;;;;;89.00;68.67;;;;;7.32;51.58;99761.06;5101756;28;9338;-75
2023/04/09 00:30:28;;;;;;;;;85.67;69.00;;;;;7.21;51.43;99761.97;5085244;28;9230;-76
2023/04/09 00:32:56;;;;;;;;;89.67;69.00;;;;;7.18;51.37;99754.13;5085238;28;10637;-75
2023/04/09 00:35:26;;;;;;;;;91.00;69.00;;;;;7.19;52.07;99761.13;5083220;28;9301;-76
2023/04/09 00:37:56;;;;;;;;;92.33;69.33;;;;;7.17;51.17;99762.84;5101717;28;9119;-75
2023/04/09 00:40:25;;;;;;;;;84.67;65.33;;;;;7.17;51.12;99756.75;5100698;28;9051;-76
2023/04/09 00:42:53;;;;;;;;;85.00;66.50;;;;;7.12;51.69;99764.63;5090123;28;9977;-76
2023/04/09 00:45:22;;;;;;;;;80.00;63.75;;;;;7.10;51.15;99766.38;5101320;28;8875;-74
2023/04/09 00:47:51;;;;;;;;;78.00;62.25;;;;;7.08;50.75;99763.75;5068461;28;8871;-78
2023/04/09 00:50:21;;;;;;;;;79.00;63.25;;;;;7.06;51.43;99764.63;5092532;28;8874;-76
2023/04/09 00:52:50;;;;;;;;;74.50;60.75;;;;;7.07;51.44;99762.00;5033665;28;8848;-75
2023/04/09 00:55:21;;;;;;;;;76.25;61.50;;;;;7.11;51.20;99765.47;5043615;28;8836;-77
2023/04/09 00:57:50;;;;;;;;;75.00;61.50;;;;;7.08;51.26;99763.75;5013237;28;8862;-74
2023/04/09 01:00:19;;;;;;;;;75.00;59.75;;;;;7.11;50.81;99756.78;5024793;28;8864;-74
2023/04/09 01:02:50;;;;;;;;;79.00;62.50;;;;;7.12;50.93;99758.50;5014948;28;8885;-78
2023/04/09 01:05:19;;;;;;;;;77.00;61.75;;;;;7.15;50.54;99759.38;5003862;28;8889;-75
2023/04/09 01:08:01;;;;;;;;;80.00;62.67;;;;;7.21;50.69;99755.84;4989949;28;9814;-75
2023/04/09 01:10:38;;;;;;;;;82.25;64.75;;;;;7.18;50.58;99763.72;4980416;28;8978;-75
2023/04/09 01:13:12;;;;;;;;;85.67;66.67;;;;;6.72;52.59;99772.53;5006430;28;8884;-78
2023/04/09 01:15:48;;;;;;;;;81.33;63.00;;;;;6.51;53.35;99771.69;4999098;28;8956;-75
2023/04/09 01:18:25;;;;;;;;;90.33;70.00;;;;;5.67;55.94;99779.41;4996405;28;9365;-77
2023/04/09 01:20:59;;;;;;;;;90.67;69.67;;;;;5.52;56.46;99775.03;4975390;28;9434;-76
2023/04/09 01:23:37;;;;;;;;;93.75;75.00;;;;;5.36;57.71;99778.44;5017768;28;9398;-76
2023/04/09 01:26:18;;;;;;;;;96.25;78.25;;;;;5.28;58.23;99776.66;5037042;28;9593;-77
2023/04/09 01:28:56;;;;;;;;;96.50;77.50;;;;;5.38;57.91;99771.47;5024911;28;9627;-76
2023/04/09 01:31:30;;;;;;;;;88.50;69.25;;;;;5.23;59.03;99769.66;5040413;28;9879;-75
2023/04/09 01:34:01;;;;;;;;;100.25;78.25;;;;;4.82;60.35;99773.78;5008269;28;9840;-76
2023/04/09 01:36:31;;;;;;;;;101.00;84.25;;;;;4.76;61.00;99776.34;5088014;28;9701;-74
2023/04/09 01:39:02;;;;;;;;;100.50;86.75;;;;;5.30;59.04;99774.94;5096488;28;9968;-78
2023/04/09 01:41:34;;;;;;;;;96.25;76.00;;;;;5.49;58.39;99772.38;5084032;28;10027;-76
2023/04/09 01:44:05;;;;;;;;;102.50;86.25;;;;;5.23;58.91;99773.16;5078414;28;10113;-79
2023/04/09 01:46:35;;;;;;;;;104.50;91.50;;;;;4.77;60.51;99775.47;5070726;28;9995;-76
2023/04/09 01:49:05;;;;;;;;;104.75;88.00;;;;;4.67;61.03;99782.38;5056538;28;10409;-75
2023/04/09 01:51:34;;;;;;;;;104.00;90.50;;;;;5.01;59.55;99782.56;5099500;28;10405;-75
2023/04/09 01:54:04;;;;;;;;;103.50;86.00;;;;;5.25;58.60;99786.19;5070320;28;10197;-76
2023/04/09 01:56:41;;;;;;;;;101.75;87.25;;;;;5.57;58.03;99783.75;5061798;28;9975;-76
2023/04/09 01:59:11;;;;;;;;;101.00;82.50;;;;;5.76;56.88;99789.88;5102881;28;10161;-75
2023/04/09 02:01:45;;;;;;;;;97.25;78.75;;;;;5.38;58.06;99793.22;5070365;28;10126;-75
2023/04/09 02:04:22;;;;;;;;;95.75;81.25;;;;;5.77;56.76;99788.13;5044920;28;10030;-76
2023/04/09 02:06:59;;;;;;;;;95.25;77.00;;;;;5.93;56.20;99782.09;5083763;28;10033;-75
2023/04/09 02:09:31;;;;;;;;;100.75;85.75;;;;;5.99;55.87;99774.25;5062142;28;9453;-75
2023/04/09 02:12:05;;;;;;;;;96.00;74.00;;;;;5.87;56.78;99788.16;5086791;28;10941;-75
2023/04/09 02:14:37;;;;;;;;;89.33;69.33;;;;;5.40;58.63;99785.41;5066801;28;9391;-79
2023/04/09 02:17:06;;;;;;;;;94.33;75.33;;;;;4.92;60.48;99779.91;5079957;28;9239;-78
2023/04/09 02:19:39;;;;;;;;;88.33;69.67;;;;;4.76;61.66;99776.34;5103110;28;9545;-76
2023/04/09 02:22:09;;;;;;;;;95.00;72.00;;;;;4.76;61.38;99784.16;5118740;27;9195;-79
2023/04/09 02:24:39;;;;;;;;;88.67;67.00;;;;;5.23;59.81;99782.72;5086260;28;9343;-76
2023/04/09 02:27:08;;;;;;;;;92.00;72.00;;;;;5.47;58.90;99771.50;5087192;28;9339;-75
2023/04/09 02:29:40;;;;;;;;;91.00;73.50;;;;;5.72;57.81;99780.31;5087444;28;9018;-75
2023/04/09 02:32:09;;;;;;;;;98.00;75.33;;;;;5.87;56.49;99776.88;5083074;28;9463;-75
2023/04/09 02:34:38;;;;;;;;;95.33;74.33;;;;;6.01;56.01;99774.28;5087046;28;9430;-77
2023/04/09 02:37:07;;;;;;;;;93.00;74.67;;;;;6.12;56.05;99772.53;5086629;28;9377;-76
2023/04/09 02:39:35;;;;;;;;;92.00;68.75;;;;;6.22;55.57;99762.97;5088091;28;9566;-77
2023/04/09 02:42:06;;;;;;;;;92.25;71.75;;;;;6.28;54.95;99766.44;5069743;28;9499;-74
2023/04/09 02:44:35;;;;;;;;;95.00;75.00;;;;;6.35;54.60;99769.94;5070125;28;9467;-77
2023/04/09 02:47:06;;;;;;;;;103.00;82.50;;;;;6.39;54.03;99770.81;5083987;28;10367;-76
2023/04/09 02:49:37;;;;;;;;;90.00;69.00;;;;;6.38;55.03;99763.84;5101686;27;9958;-75
2023/04/09 02:52:07;;;;;;;;;95.33;73.33;;;;;6.38;54.63;99775.16;5071799;28;9394;-78
2023/04/09 02:54:35;;;;;;;;;93.75;74.50;;;;;6.42;54.53;99768.22;5086711;28;9338;-75
2023/04/09 02:57:04;;;;;;;;;96.00;73.33;;;;;6.42;54.50;99766.47;5086439;28;9564;-76
2023/04/09 02:59:34;;;;;;;;;93.33;74.00;;;;;6.40;54.21;99762.97;5077950;28;9433;-77
2023/04/09 03:02:06;;;;;;;;;87.67;69.33;;;;;6.42;54.48;99776.03;5069645;28;9494;-75
2023/04/09 03:04:35;;;;;;;;;95.67;74.00;;;;;6.43;54.91;99772.53;5074986;28;9300;-75
2023/04/09 03:07:04;;;;;;;;;90.67;69.67;;;;;6.45;54.32;99769.03;5102040;28;9195;-75
2023/04/09 03:09:32;;;;;;;;;76.00;61.00;;;;;6.45;54.21;99768.19;5065916;28;10118;-74
2023/04/09 03:12:01;;;;;;;;;90.67;68.67;;;;;6.44;54.42;99764.72;5059376;28;9352;-74
2023/04/09 03:14:30;;;;;;;;;90.33;70.67;;;;;6.47;54.34;99769.06;5022764;28;9106;-75
2023/04/09 03:17:01;;;;;;;;;79.00;62.25;;;;;6.47;54.77;99766.44;5027498;28;9274;-75
2023/04/09 03:19:32;;;;;;;;;88.67;69.67;;;;;6.52;54.43;99764.72;4993026;28;9466;-76
2023/04/09 03:22:02;;;;;;;;;89.00;69.33;;;;;6.38;54.55;99761.22;5006909;28;9274;-74
2023/04/09 03:24:32;;;;;;;;;89.00;69.33;;;;;6.32;54.38;99770.81;5009095;28;9230;-76
2023/04/09 03:27:05;;;;;;;;;89.33;70.00;;;;;6.24;54.62;99764.69;4976470;28;9346;-76
2023/04/09 03:29:34;;;;;;;;;88.67;70.33;;;;;6.23;54.51;99770.81;5014291;28;9109;-78
2023/04/09 03:32:04;;;;;;;;;96.33;72.67;;;;;6.24;54.73;99763.84;5025220;28;9330;-75
2023/04/09 03:34:35;;;;;;;;;94.33;74.33;;;;;6.19;54.31;99761.25;5025652;28;9255;-76
2023/04/09 03:37:04;;;;;;;;;101.25;84.00;;;;;6.19;54.79;99769.06;5007904;28;9302;-75
2023/04/09 03:39:32;;;;;;;;;96.75;80.00;;;;;6.20;54.60;99762.09;5007560;28;9873;-78
2023/04/09 03:42:01;;;;;;;;;94.67;71.00;;;;;6.22;54.58;99765.59;4984534;28;9749;-77
2023/04/09 03:44:40;;;;;;;;;86.33;67.67;;;;;6.27;54.73;99769.06;5002082;28;9255;-76
2023/04/09 03:47:13;;;;;;;;;83.67;64.67;;;;;6.24;53.98;99769.91;4989495;28;9021;-76
2023/04/09 03:49:43;;;;;;;;;85.00;66.67;;;;;6.27;54.24;99771.69;5005558;28;9214;-75
2023/04/09 03:52:25;;;;;;;;;88.67;69.67;;;;;6.30;54.20;99779.50;5005249;28;8955;-76
2023/04/09 03:55:04;;;;;;;;;87.50;69.00;;;;;6.29;54.29;99777.78;5001790;28;9109;-77
2023/04/09 03:57:33;;;;;;;;;88.67;70.67;;;;;6.32;54.48;99778.66;4987416;28;9781;-76
2023/04/09 04:00:02;;;;;;;;;88.33;68.00;;;;;6.36;54.46;99781.25;4995575;28;9186;-82
2023/04/09 04:02:39;;;;;;;;;88.00;68.67;;;;;6.37;53.81;99778.63;5028049;28;9205;-77
2023/04/09 04:05:11;;;;;;;;;95.00;71.00;;;;;6.34;54.27;99770.78;5045324;28;9152;-76
2023/04/09 04:07:46;;;;;;;;;92.33;69.33;;;;;6.32;54.55;99773.44;5028755;28;9005;-79
2023/04/09 04:10:20;;;;;;;;;78.00;57.33;;;;;6.31;54.22;99774.28;5012498;28;9998;-76
2023/04/09 04:12:49;;;;;;;;;93.00;72.33;;;;;6.34;54.32;99770.78;4999711;28;9009;-77
2023/04/09 04:15:45;;;;;;;;;90.67;69.67;;;;;6.37;53.94;99786.47;5086891;28;9075;-76
2023/04/09 04:18:16;;;;;;;;;89.67;70.00;;;;;6.31;54.18;99779.50;5048070;28;10286;-78
2023/04/09 04:20:50;;;;;;;;;121.75;109.50;;;;;6.30;53.77;99798.66;5045025;28;9514;-76
2023/04/09 04:23:19;;;;;;;;;90.67;71.00;;;;;6.22;54.49;99792.56;5045332;28;11499;-80
2023/04/09 04:26:00;;;;;;;;;85.00;68.33;;;;;6.23;54.55;99785.63;5061998;28;9391;-76
2023/04/09 04:28:34;;;;;;;;;83.00;64.00;;;;;6.22;54.72;99784.72;5044682;28;9907;-74
2023/04/09 04:31:08;;;;;;;;;79.75;63.25;;;;;6.26;54.55;99786.47;5060543;28;8863;-76
2023/04/09 04:33:38;;;;;;;;;83.75;64.75;;;;;6.26;54.19;99789.06;5003652;28;8868;-74
2023/04/09 04:36:13;;;;;;;;;83.75;65.00;;;;;6.26;54.66;99793.44;5059186;28;8927;-76
2023/04/09 04:38:47;;;;;;;;;79.75;59.75;;;;;6.26;54.44;99789.06;5044294;28;8841;-79
2023/04/09 04:41:22;;;;;;;;;76.25;61.25;;;;;6.29;54.37;99786.47;5046330;28;8850;-75
2023/04/09 04:44:05;;;;;;;;;83.00;62.00;;;;;6.38;53.54;99790.84;5014734;28;8874;-75
2023/04/09 04:46:33;;;;;;;;;72.25;59.25;;;;;6.44;53.29;99788.22;5026633;28;8902;-75
2023/04/09 04:49:02;;;;;;;;;75.00;58.25;;;;;6.51;53.25;99779.50;5059082;28;8844;-76
2023/04/09 04:51:33;;;;;;;;;78.75;62.00;;;;;6.57;53.32;99777.75;5076932;28;8848;-74
2023/04/09 04:54:07;;;;;;;;;75.50;57.00;;;;;6.58;53.41;99779.50;5048555;28;8844;-75
2023/04/09 04:56:37;;;;;;;;;79.50;63.50;;;;;6.63;53.35;99775.16;5072663;28;9560;-75
2023/04/09 04:59:18;;;;;;;;;93.00;72.00;;;;;6.71;53.06;99784.69;5021134;28;8856;-76
2023/04/09 05:01:57;;;;;;;;;86.00;67.67;;;;;6.79;53.55;99787.28;5081913;28;9341;-76
2023/04/09 05:04:33;;;;;;;;;93.25;73.00;;;;;6.87;53.04;99788.19;5047983;28;9127;-77
2023/04/09 05:07:04;;;;;;;;;86.33;68.67;;;;;6.97;52.45;99782.97;5075030;28;10253;-76
2023/04/09 05:09:33;;;;;;;;;73.75;60.00;;;;;7.04;51.94;99790.78;5084402;28;8987;-75
2023/04/09 05:12:06;;;;;;;;;82.75;64.50;;;;;7.11;52.23;99789.00;5050703;28;8974;-76
2023/04/09 05:14:35;;;;;;;;;78.25;61.50;;;;;7.19;51.83;99788.97;5066974;28;8906;-75
2023/04/09 05:17:04;;;;;;;;;77.25;62.25;;;;;7.29;51.56;99798.56;5049942;28;8863;-76
2023/04/09 05:19:42;;;;;;;;;84.50;65.75;;;;;7.37;52.22;99796.78;5047125;28;8848;-78
2023/04/09 05:22:14;;;;;;;;;78.00;61.25;;;;;7.50;51.90;99802.81;5033427;28;8848;-75
2023/04/09 05:24:43;;;;;;;;;120.00;106.25;;;;;7.55;51.40;99803.69;5069455;28;8866;-77
2023/04/09 05:27:12;;;;;;;;;95.00;74.33;;;;;7.62;51.11;99807.13;5087152;28;10478;-77
2023/04/09 05:29:42;;;;;;;;;86.00;66.33;;;;;7.72;50.46;99814.06;5087680;28;9487;-78
2023/04/09 05:32:11;;;;;;;;;87.00;66.75;;;;;7.79;50.49;99813.13;5085895;28;9026;-77
2023/04/09 05:34:41;;;;;;;;;83.50;63.25;;;;;7.90;50.67;99817.47;5116452;27;8878;-75
2023/04/09 05:37:09;;;;;;;;;81.50;63.75;;;;;8.01;50.50;99818.28;5118914;27;8869;-76
2023/04/09 05:39:41;;;;;;;;;81.25;63.00;;;;;8.12;49.72;99810.31;5070232;28;8835;-79
2023/04/09 05:42:10;;;;;;;;;80.00;63.00;;;;;8.22;49.71;99814.63;5110220;27;8904;-76
2023/04/09 05:44:52;;;;;;;;;74.00;59.25;;;;;8.33;49.62;99814.59;5091631;28;8824;-76
2023/04/09 05:47:22;;;;;;;;;80.00;61.00;;;;;8.42;49.01;99819.75;5089466;28;8872;-76
2023/04/09 05:50:20;;;;;;;;;76.25;60.00;;;;;8.48;49.14;99827.59;5040829;28;8870;-77
2023/04/09 05:52:52;;;;;;;;;71.75;58.00;;;;;8.53;48.37;99820.53;5045447;28;8893;-76
2023/04/09 05:55:25;;;;;;;;;89.67;71.67;;;;;8.60;48.48;99824.84;5046149;28;9592;-75
2023/04/09 05:57:58;;;;;;;;;78.75;61.25;;;;;8.63;48.01;99822.22;5019499;28;9177;-76
2023/04/09 06:00:28;;;;;;;;;79.50;62.00;;;;;8.76;47.98;99829.94;5021540;28;8846;-76
2023/04/09 06:02:57;;;;;;;;;75.50;59.50;;;;;8.84;48.01;99822.91;5029501;28;9079;-77
2023/04/09 06:05:28;;;;;;;;;81.25;64.50;;;;;8.92;47.30;99830.69;5025362;28;8867;-77
2023/04/09 06:07:57;;;;;;;;;82.25;65.00;;;;;9.09;47.65;99830.53;5032535;28;8869;-76
2023/04/09 06:10:28;;;;;;;;;79.50;61.75;;;;;9.16;47.13;99826.97;4983404;28;8893;-76
2023/04/09 06:12:57;;;;;;;;;79.00;61.75;;;;;9.30;46.97;99830.28;5000625;28;9038;-77
2023/04/09 06:15:27;;;;;;;;;82.25;62.25;;;;;9.47;47.00;99826.59;5048208;28;8862;-76
2023/04/09 06:17:56;;;;;;;;;78.50;61.00;;;;;9.54;46.32;99829.13;5045801;28;8870;-79
2023/04/09 06:20:27;;;;;;;;;73.75;57.50;;;;;9.73;45.83;99831.56;5046336;28;8874;-77
2023/04/09 06:22:56;;;;;;;;;77.25;60.25;;;;;9.79;45.91;99834.09;5049985;28;8871;-80
2023/04/09 06:25:25;;;;;;;;;80.50;64.25;;;;;9.91;45.42;99838.31;5066962;28;8847;-75
2023/04/09 06:27:55;;;;;;;;;78.75;62.75;;;;;10.07;45.51;99834.59;5100209;28;8847;-79
2023/04/09 06:30:24;;;;;;;;;94.00;77.50;;;;;10.17;45.02;99838.81;5088205;28;8851;-79
2023/04/09 06:32:53;;;;;;;;;91.00;76.75;;;;;10.27;44.98;99831.66;5089493;28;9732;-78
2023/04/09 06:35:23;;;;;;;;;91.50;74.50;;;;;10.46;44.95;99831.38;5084092;28;9541;-77
2023/04/09 06:37:52;;;;;;;;;84.33;65.00;;;;;10.45;44.40;99829.66;5070040;28;9492;-75
2023/04/09 06:40:22;;;;;;;;;87.33;69.33;;;;;10.58;44.47;99831.19;5068178;28;9004;-79
2023/04/09 06:42:51;;;;;;;;;81.67;64.00;;;;;10.68;44.12;99838.03;5081777;28;9170;-79
2023/04/09 06:45:34;;;;;;;;;88.67;65.67;;;;;10.78;43.35;99841.41;5104342;28;8937;-77
2023/04/09 06:48:03;;;;;;;;;83.33;65.33;;;;;10.80;43.29;99839.59;5078884;28;9097;-79
2023/04/09 06:50:32;;;;;;;;;85.00;64.33;;;;;10.85;43.78;99840.41;5069266;28;9759;-75
2023/04/09 06:53:02;;;;;;;;;78.00;59.25;;;;;10.78;43.22;99844.03;5069172;28;9207;-77
2023/04/09 06:55:31;;;;;;;;;97.75;85.25;;;;;10.81;43.43;99844.00;5067269;28;9005;-80
2023/04/09 06:58:01;;;;;;;;;86.00;69.00;;;;;10.84;42.95;99854.47;5077873;28;10756;-75
2023/04/09 07:00:31;;;;;;;;;81.25;62.25;;;;;10.91;43.12;99853.44;5100668;28;10033;-77
2023/04/09 07:03:01;;;;;;;;;82.50;64.75;;;;;10.97;43.28;99856.00;5074504;28;8902;-76
2023/04/09 07:05:30;;;;;;;;;78.50;61.50;;;;;10.98;43.17;99854.22;5086243;28;9585;-81
2023/04/09 07:08:00;;;;;;;;;80.25;62.50;;;;;11.06;43.00;99859.34;5087706;28;8863;-77
2023/04/09 07:10:29;;;;;;;;;77.00;59.25;;;;;11.11;42.62;99858.34;5077491;28;8854;-78
2023/04/09 07:12:58;;;;;;;;;75.75;59.75;;;;;10.99;42.65;99866.44;5083492;28;8962;-79
2023/04/09 07:15:27;;;;;;;;;79.75;60.75;;;;;11.16;43.08;99863.53;5085627;28;8925;-77
2023/04/09 07:17:56;;;;;;;;;78.50;60.75;;;;;11.33;42.38;99864.09;5081731;28;8858;-78
2023/04/09 07:20:27;;;;;;;;;73.25;55.75;;;;;11.50;41.86;99865.53;5069096;28;8852;-77
2023/04/09 07:22:56;;;;;;;;;67.00;55.00;;;;;11.56;41.50;99861.00;5070232;28;8859;-77
2023/04/09 07:25:25;;;;;;;;;95.00;78.67;;;;;11.70;41.39;99866.00;5103982;28;8944;-78
2023/04/09 07:27:54;;;;;;;;;85.67;65.00;;;;;11.81;41.65;99864.91;5070435;28;9568;-75
2023/04/09 07:30:24;;;;;;;;;67.75;55.75;;;;;11.84;40.45;99870.13;5082243;28;9018;-77
2023/04/09 07:32:53;;;;;;;;;70.50;58.75;;;;;11.92;41.63;99868.22;5072963;28;8868;-76
2023/04/09 07:35:22;;;;;;;;;68.50;54.75;;;;;11.88;40.66;99871.81;5086275;28;8948;-76
2023/04/09 07:37:52;;;;;;;;;82.67;65.67;;;;;11.89;40.20;99876.19;5100170;28;8866;-75
2023/04/09 07:40:22;;;;;;;;;93.00;80.50;;;;;12.11;39.99;99872.19;5082503;28;9150;-76
2023/04/09 07:42:52;;;;;;;;;73.50;56.00;;;;;12.19;39.24;99869.38;5068890;28;9864;-78
2023/04/09 07:45:21;;;;;;;;;66.00;51.50;;;;;12.25;39.25;99879.78;5057257;28;8973;-80
2023/04/09 07:47:50;;;;;;;;;74.50;60.75;;;;;12.33;39.69;99879.59;5067854;28;8854;-79
2023/04/09 07:50:19;;;;;;;;;74.75;60.50;;;;;12.09;40.72;99879.25;5067656;28;8874;-79
2023/04/09 07:52:48;;;;;;;;;76.75;61.00;;;;;10.90;43.27;99891.16;5082543;28;8870;-82
2023/04/09 07:55:19;;;;;;;;;80.75;62.25;;;;;11.37;42.81;99884.19;5066611;28;9941;-79
2023/04/09 07:57:48;;;;;;;;;77.50;61.50;;;;;11.22;43.40;99889.75;5071560;28;9609;-77
2023/04/09 08:00:18;;;;;;;;;83.25;64.25;;;;;10.50;44.96;99902.28;5048172;28;8859;-80
2023/04/09 08:02:46;;;;;;;;;73.75;58.25;;;;;10.30;45.53;99893.81;5030553;28;8879;-78
2023/04/09 08:05:16;;;;;;;;;79.75;61.50;;;;;10.00;46.39;99893.34;5083553;28;8846;-79
2023/04/09 08:07:44;;;;;;;;;78.00;61.50;;;;;10.55;45.47;99891.69;5067325;28;8985;-78
2023/04/09 08:10:15;;;;;;;;;75.25;61.00;;;;;10.85;44.31;99894.78;5077317;28;8897;-80
2023/04/09 08:12:45;;;;;;;;;77.00;60.50;;;;;11.16;43.88;99892.47;5082667;28;8894;-79
2023/04/09 08:15:14;;;;;;;;;75.25;60.75;;;;;10.87;44.02;99893.84;5092258;28;8928;-78
2023/04/09 08:17:43;;;;;;;;;79.00;63.75;;;;;10.96;44.25;99888.44;5070630;28;9716;-79
2023/04/09 08:20:13;;;;;;;;;87.25;72.75;;;;;11.17;44.25;99894.22;5036983;28;8858;-80
2023/04/09 08:22:41;;;;;;;;;86.00;67.33;;;;;11.48;43.45;99889.28;5080993;28;9749;-79
2023/04/09 08:25:10;;;;;;;;;74.75;57.75;;;;;11.33;43.20;99892.16;5078046;28;9021;-79
2023/04/09 08:27:39;;;;;;;;;75.75;60.75;;;;;11.37;43.86;99893.88;5070484;28;8871;-80
2023/04/09 08:30:11;;;;;;;;;80.67;63.00;;;;;11.74;42.68;99891.34;5071533;28;8859;-78
2023/04/09 08:32:40;;;;;;;;;84.00;65.67;;;;;11.75;42.08;99885.22;5089250;28;9091;-79
2023/04/09 08:35:10;;;;;;;;;76.25;61.50;;;;;11.86;42.02;99890.28;5088437;28;8962;-80
2023/04/09 08:37:38;;;;;;;;;76.50;61.25;;;;;11.82;41.38;99896.50;5086565;28;8868;-79
2023/04/09 08:40:10;;;;;;;;;79.50;61.50;;;;;10.84;43.66;99891.28;5086346;28;8832;-79
2023/04/09 08:42:44;;;;;;;;;74.50;61.00;;;;;10.32;45.75;99890.28;5033396;28;8888;-79
2023/04/09 08:45:15;;;;;;;;;75.75;59.25;;;;;10.62;44.34;99897.75;5067567;28;9655;-78
2023/04/09 08:47:49;;;;;;;;;79.50;62.75;;;;;10.39;44.98;99898.97;5067852;28;8850;-79
2023/04/09 08:50:19;;;;;;;;;75.75;59.25;;;;;10.82;44.63;99887.78;5068450;28;8849;-81
2023/04/09 08:52:49;;;;;;;;;76.75;58.00;;;;;11.09;43.82;99889.09;5068969;28;8865;-79
2023/04/09 08:55:18;;;;;;;;;75.25;60.25;;;;;11.46;43.37;99890.16;5068799;28;8861;-80
2023/04/09 08:57:47;;;;;;;;;74.50;59.00;;;;;11.62;43.04;99899.53;5078477;28;8862;-79
2023/04/09 09:00:17;;;;;;;;;73.75;60.00;;;;;11.85;42.25;99890.31;5105390;28;8928;-81
2023/04/09 09:03:02;;;;;;;;;76.75;58.75;;;;;11.50;42.85;99886.56;5039066;28;8823;-80
2023/04/09 09:05:39;;;;;;;;;76.25;57.75;;;;;11.26;43.07;99898.47;5087884;28;8839;-79
2023/04/09 09:08:09;;;;;;;;;74.00;59.00;;;;;11.45;42.88;99897.22;5055903;28;8871;-80
2023/04/09 09:10:41;;;;;;;;;72.50;58.25;;;;;11.76;42.14;99893.97;5064420;28;8851;-79
2023/04/09 09:13:21;;;;;;;;;81.25;63.00;;;;;12.20;41.71;99888.69;5063589;28;8856;-80
2023/04/09 09:15:55;;;;;;;;;77.00;61.00;;;;;12.21;41.56;99893.06;5081096;28;8959;-80
2023/04/09 09:18:38;;;;;;;;;70.25;55.00;;;;;12.55;40.62;99885.25;5064416;28;8870;-80
2023/04/09 09:21:12;;;;;;;;;71.00;55.75;;;;;12.71;40.10;99886.63;5064354;28;8886;-80
2023/04/09 09:23:41;;;;;;;;;73.00;57.75;;;;;12.23;40.45;99891.25;5064506;28;8856;-79
2023/04/09 09:26:15;;;;;;;;;74.25;59.25;;;;;10.85;42.65;99893.00;5015334;28;8883;-79
2023/04/09 09:28:45;;;;;;;;;72.75;57.50;;;;;10.68;43.02;99887.97;5064330;28;9022;-80
2023/04/09 09:31:17;;;;;;;;;68.75;54.75;;;;;11.07;43.40;99883.00;5063350;28;8852;-81
2023/04/09 09:33:47;;;;;;;;;67.25;55.25;;;;;11.05;43.04;99892.69;5064689;28;8890;-80
2023/04/09 09:36:16;;;;;;;;;73.00;56.75;;;;;11.32;42.44;99879.91;5054154;28;8850;-79
2023/04/09 09:38:53;;;;;;;;;70.25;56.00;;;;;11.54;42.44;99882.97;5048034;28;8862;-79
2023/04/09 09:41:24;;;;;;;;;66.50;54.00;;;;;11.56;42.54;99875.94;5023954;28;8850;-79
2023/04/09 09:43:53;;;;;;;;;69.00;53.75;;;;;11.93;41.90;99875.22;5069367;28;8979;-79
2023/04/09 09:46:26;;;;;;;;;63.25;50.25;;;;;12.04;40.42;99877.63;5070272;28;8886;-81
2023/04/09 09:48:56;;;;;;;;;62.75;51.75;;;;;12.31;39.81;99871.72;4971022;28;9628;-80
2023/04/09 09:51:27;;;;;;;;;60.50;48.50;;;;;12.58;39.50;99874.63;5035843;28;8853;-80
2023/04/09 09:53:57;;;;;;;;;59.25;48.25;;;;;12.87;38.81;99876.59;5069103;28;8862;-80
2023/04/09 09:56:32;;;;;;;;;62.75;50.75;;;;;13.19;38.21;99871.38;5085531;28;9037;-79
2023/04/09 09:59:06;;;;;;;;;64.75;51.75;;;;;11.62;40.08;99875.81;5034678;28;8980;-79
2023/04/09 10:01:37;;;;;;;;;59.50;49.50;;;;;11.61;40.01;99874.06;5070912;28;8823;-82
2023/04/09 10:04:12;;;;;;;;;60.75;50.75;;;;;10.85;41.49;99876.38;5070382;28;8858;-80
2023/04/09 10:06:43;;;;;;;;;66.00;50.50;;;;;9.87;44.14;99870.75;5070345;28;8862;-79
2023/04/09 10:09:13;;;;;;;;;58.75;48.25;;;;;10.65;42.95;99874.00;5071322;28;8997;-79
2023/04/09 10:11:44;;;;;;;;;60.00;48.50;;;;;11.11;42.59;99871.50;5052196;28;8834;-81
2023/04/09 10:14:13;;;;;;;;;61.75;50.25;;;;;11.05;41.35;99866.38;5069074;28;8842;-78
2023/04/09 10:16:44;;;;;;;;;58.50;48.50;;;;;11.53;41.36;99866.31;5070306;28;8839;-80
2023/04/09 10:19:13;;;;;;;;;60.00;48.00;;;;;11.84;40.78;99870.13;5069890;28;8881;-81
2023/04/09 10:21:48;;;;;;;;;60.50;49.00;;;;;12.16;39.82;99858.91;5069569;28;8854;-80
2023/04/09 10:24:17;;;;;;;;;62.25;48.75;;;;;12.50;39.11;99851.09;5069674;28;8842;-81
2023/04/09 10:26:46;;;;;;;;;58.50;47.25;;;;;12.86;37.97;99856.41;5069556;28;8830;-80
2023/04/09 10:29:17;;;;;;;;;62.75;48.75;;;;;13.24;38.18;99854.53;5068095;28;8947;-80
2023/04/09 10:31:51;;;;;;;;;53.75;44.50;;;;;13.49;37.22;99853.84;5069669;28;8847;-80
2023/04/09 10:34:22;;;;;;;;;57.75;47.00;;;;;13.74;36.67;99853.13;5068218;28;8862;-79
2023/04/09 10:36:53;;;;;;;;;61.25;50.75;;;;;13.99;36.34;99845.38;5070073;28;8995;-80
2023/04/09 10:39:26;;;;;;;;;57.00;47.50;;;;;14.26;35.69;99844.53;5070396;28;8858;-80
2023/04/09 10:41:57;;;;;;;;;57.25;47.25;;;;;14.37;35.26;99846.81;5069756;28;8846;-80
2023/04/09 10:44:27;;;;;;;;;76.75;59.00;;;;;14.57;34.85;99847.97;5069563;28;8877;-80
2023/04/09 10:46:59;;;;;;;;;64.50;52.75;;;;;14.78;34.70;99847.28;5068103;28;8959;-80
2023/04/09 10:49:35;;;;;;;;;59.00;47.75;;;;;14.74;34.91;99836.88;5050845;28;8929;-80
2023/04/09 10:52:06;;;;;;;;;56.25;46.50;;;;;14.79;34.25;99837.56;5069135;28;8838;-79
2023/04/09 10:54:50;;;;;;;;;54.25;45.75;;;;;15.08;34.39;99839.22;5067889;28;10054;-80
2023/04/09 10:57:21;;;;;;;;;58.50;46.50;;;;;14.80;34.74;99841.94;5030319;28;8847;-82
2023/04/09 10:59:51;;;;;;;;;59.25;47.50;;;;;14.56;35.17;99843.59;5088495;28;8891;-81
2023/04/09 11:02:54;;;;;;;;;59.50;47.50;;;;;14.74;35.32;99845.66;5071436;28;8990;-81
2023/04/09 11:05:30;;;;;;;;;59.75;48.75;;;;;14.35;35.40;99837.22;5072697;28;8847;-79
2023/04/09 11:08:05;;;;;;;;;60.75;49.75;;;;;14.38;35.69;99835.34;5105203;28;8870;-79
2023/04/09 11:10:34;;;;;;;;;59.75;48.50;;;;;14.43;36.06;99844.00;5089162;28;8970;-80
2023/04/09 11:13:03;;;;;;;;;53.00;45.00;;;;;14.39;35.49;99839.69;5089956;28;8865;-80
2023/04/09 11:15:34;;;;;;;;;58.00;46.75;;;;;14.42;35.54;99841.41;5116496;27;8867;-80
2023/04/09 11:18:08;;;;;;;;;60.25;49.00;;;;;14.51;35.83;99840.22;5087824;28;8893;-80
2023/04/09 11:20:38;;;;;;;;;58.75;49.00;;;;;14.52;35.74;99839.31;5072973;28;8888;-82
2023/04/09 11:23:07;;;;;;;;;58.75;47.50;;;;;14.36;35.22;99842.47;5087626;28;8854;-81
2023/04/09 11:25:36;;;;;;;;;54.75;46.25;;;;;14.50;35.01;99841.16;5075380;28;8863;-80
2023/04/09 11:28:07;;;;;;;;;57.25;47.00;;;;;14.50;35.01;99835.84;5085301;28;8872;-80
2023/04/09 11:30:37;;;;;;;;;58.00;47.00;;;;;14.62;35.31;99831.03;5073325;28;8974;-79
2023/04/09 11:33:07;;;;;;;;;59.75;49.75;;;;;14.60;35.61;99832.88;5086126;28;8851;-81
2023/04/09 11:35:36;;;;;;;;;56.50;44.50;;;;;14.40;35.62;99833.50;5066391;28;8908;-80
2023/04/09 11:38:10;;;;;;;;;56.50;46.75;;;;;14.48;35.52;99828.81;5075623;28;8862;-81
2023/04/09 11:40:46;;;;;;;;;56.75;47.25;;;;;14.58;34.95;99833.81;5087652;28;8940;-81
2023/04/09 11:43:17;;;;;;;;;83.33;71.00;;;;;14.68;35.00;99829.97;5068548;28;8851;-81
2023/04/09 11:45:47;;;;;;;;;57.00;47.25;;;;;14.95;35.23;99825.53;5087597;28;9317;-80
2023/04/09 11:48:20;;;;;;;;;59.50;46.00;;;;;14.65;34.64;99827.41;5074947;28;8842;-81